sensor_id;sensor_type;location;lat;lon;timestamp;temperature;humidity
4693;DHT22;11710;48.024;16.296;2022-12-07T00:00:54;6.40;99.90
4693;DHT22;11710;48.024;16.296;2022-12-07T00:03:21;6.40;99.90
4693;DHT22;11710;48.024;16.296;2022-12-07T00:05:48;6.40;99.90
4693;DHT22;11710;48.024;16.296;2022-12-07T00:08:15;6.40;99.90
4693;DHT22;11710;48.024;16.296;2022-12-07T00:10:42;6.40;99.90
4693;DHT22;11710;48.024;16.296;2022-12-07T00:13:09;6.40;99.90
4693;DHT22;11710;48.024;16.296;2022-12-07T00:15:37;6.40;99.90
4693;DHT22;11710;48.024;16.296;2022-12-07T00:18:04;6.40;99.90
4693;DHT22;11710;48.024;16.296;2022-12-07T00:20:32;6.40;99.90
4693;DHT22;11710;48.024;16.296;2022-12-07T00:22:59;6.40;99.90
4693;DHT22;11710;48.024;16.296;2022-12-07T00:25:26;6.40;99.90
4693;DHT22;11710;48.024;16.296;2022-12-07T00:27:54;6.40;99.90
4693;DHT22;11710;48.024;16.296;2022-12-07T00:30:23;6.40;99.90
4693;DHT22;11710;48.024;16.296;2022-12-07T00:32:52;6.40;99.90
4693;DHT22;11710;48.024;16.296;2022-12-07T00:35:19;6.40;99.90
4693;DHT22;11710;48.024;16.296;2022-12-07T06:03:31;6.40;99.90
4693;DHT22;11710;48.024;16.296;2022-12-07T06:05:58;6.50;99.90
4693;DHT22;11710;48.024;16.296;2022-12-07T06:08:25;6.50;99.90
4693;DHT22;11710;48.024;16.296;2022-12-07T06:10:52;6.50;99.90
4693;DHT22;11710;48.024;16.296;2022-12-07T06:13:40;6.60;99.90
4693;DHT22;11710;48.024;16.296;2022-12-07T06:16:06;6.50;99.90
4693;DHT22;11710;48.024;16.296;2022-12-07T06:18:35;6.60;99.90
4693;DHT22;11710;48.024;16.296;2022-12-07T06:21:02;6.60;99.90
4693;DHT22;11710;48.024;16.296;2022-12-07T06:23:32;6.60;99.90
4693;DHT22;11710;48.024;16.296;2022-12-07T06:26:00;6.60;99.90
4693;DHT22;11710;48.024;16.296;2022-12-07T06:28:27;6.60;99.90
4693;DHT22;11710;48.024;16.296;2022-12-07T06:30:57;6.60;99.90
4693;DHT22;11710;48.024;16.296;2022-12-07T06:33:25;6.60;99.90
4693;DHT22;11710;48.024;16.296;2022-12-07T06:35:53;6.60;99.90
4693;DHT22;11710;48.024;16.296;2022-12-07T06:38:20;6.60;99.90
4693;DHT22;11710;48.024;16.296;2022-12-07T06:40:48;6.60;99.90
4693;DHT22;11710;48.024;16.296;2022-12-07T06:43:15;6.70;99.90
4693;DHT22;11710;48.024;16.296;2022-12-07T06:45:42;6.60;99.90
4693;DHT22;11710;48.024;16.296;2022-12-07T06:48:09;6.70;99.90
4693;DHT22;11710;48.024;16.296;2022-12-07T06:50:36;6.70;99.90
4693;DHT22;11710;48.024;16.296;2022-12-07T06:53:05;6.70;99.90
4693;DHT22;11710;48.024;16.296;2022-12-07T06:55:32;6.70;99.90
4693;DHT22;11710;48.024;16.296;2022-12-07T06:57:59;6.70;99.90
4693;DHT22;11710;48.024;16.296;2022-12-07T07:00:27;6.50;99.90
4693;DHT22;11710;48.024;16.296;2022-12-07T07:02:54;6.50;99.90
4693;DHT22;11710;48.024;16.296;2022-12-07T07:05:22;6.50;99.90
4693;DHT22;11710;48.024;16.296;2022-12-07T07:07:49;6.50;99.90
4693;DHT22;11710;48.024;16.296;2022-12-07T07:10:19;6.40;99.90
4693;DHT22;11710;48.024;16.296;2022-12-07T07:12:46;6.40;99.90
4693;DHT22;11710;48.024;16.296;2022-12-07T07:15:13;6.30;99.90
4693;DHT22;11710;48.024;16.296;2022-12-07T07:17:40;6.20;99.90
4693;DHT22;11710;48.024;16.296;2022-12-07T07:20:08;6.20;99.90
4693;DHT22;11710;48.024;16.296;2022-12-07T07:22:35;6.20;99.90
4693;DHT22;11710;48.024;16.296;2022-12-07T07:25:02;6.20;99.90
4693;DHT22;11710;48.024;16.296;2022-12-07T07:27:31;6.20;99.90
4693;DHT22;11710;48.024;16.296;2022-12-07T07:29:58;6.20;99.90
4693;DHT22;11710;48.024;16.296;2022-12-07T07:32:25;6.10;99.90
4693;DHT22;11710;48.024;16.296;2022-12-07T07:34:53;6.10;99.90
4693;DHT22;11710;48.024;16.296;2022-12-07T07:37:21;6.20;99.90
4693;DHT22;11710;48.024;16.296;2022-12-07T07:39:48;6.20;99.90
4693;DHT22;11710;48.024;16.296;2022-12-07T07:42:19;6.20;99.90
4693;DHT22;11710;48.024;16.296;2022-12-07T07:44:48;6.10;99.90
4693;DHT22;11710;48.024;16.296;2022-12-07T07:47:15;6.10;99.90
4693;DHT22;11710;48.024;16.296;2022-12-07T07:49:42;6.20;99.90
4693;DHT22;11710;48.024;16.296;2022-12-07T07:52:10;6.20;99.90
4693;DHT22;11710;48.024;16.296;2022-12-07T07:54:37;6.30;99.90
4693;DHT22;11710;48.024;16.296;2022-12-07T07:57:04;6.30;99.90
4693;DHT22;11710;48.024;16.296;2022-12-07T07:59:31;6.40;99.90
4693;DHT22;11710;48.024;16.296;2022-12-07T08:02:00;6.40;99.90
4693;DHT22;11710;48.024;16.296;2022-12-07T08:04:27;6.50;99.90
4693;DHT22;11710;48.024;16.296;2022-12-07T08:06:54;6.50;99.90
4693;DHT22;11710;48.024;16.296;2022-12-07T08:09:21;6.50;99.90
4693;DHT22;11710;48.024;16.296;2022-12-07T08:11:48;6.50;99.90
4693;DHT22;11710;48.024;16.296;2022-12-07T08:14:15;6.50;99.90
4693;DHT22;11710;48.024;16.296;2022-12-07T08:16:42;6.50;99.90
4693;DHT22;11710;48.024;16.296;2022-12-07T08:19:11;6.60;99.90
4693;DHT22;11710;48.024;16.296;2022-12-07T08:21:38;6.70;99.90
4693;DHT22;11710;48.024;16.296;2022-12-07T08:24:06;6.70;99.90
4693;DHT22;11710;48.024;16.296;2022-12-07T08:26:33;6.70;99.90
4693;DHT22;11710;48.024;16.296;2022-12-07T08:29:01;6.70;99.90
4693;DHT22;11710;48.024;16.296;2022-12-07T08:31:28;6.70;99.90
4693;DHT22;11710;48.024;16.296;2022-12-07T08:33:56;6.70;99.90
4693;DHT22;11710;48.024;16.296;2022-12-07T08:36:25;6.80;99.90
4693;DHT22;11710;48.024;16.296;2022-12-07T08:38:53;6.70;99.90
4693;DHT22;11710;48.024;16.296;2022-12-07T08:41:20;6.70;99.90
4693;DHT22;11710;48.024;16.296;2022-12-07T08:43:47;6.70;99.90
4693;DHT22;11710;48.024;16.296;2022-12-07T08:46:18;6.60;99.90
4693;DHT22;11710;48.024;16.296;2022-12-07T08:48:49;6.60;99.90
4693;DHT22;11710;48.024;16.296;2022-12-07T08:51:20;6.60;99.90
4693;DHT22;11710;48.024;16.296;2022-12-07T08:53:51;6.60;99.90
4693;DHT22;11710;48.024;16.296;2022-12-07T08:56:19;6.60;99.90
4693;DHT22;11710;48.024;16.296;2022-12-07T08:58:47;6.60;99.90
4693;DHT22;11710;48.024;16.296;2022-12-07T09:01:14;6.60;99.90
4693;DHT22;11710;48.024;16.296;2022-12-07T09:03:42;6.60;99.90
4693;DHT22;11710;48.024;16.296;2022-12-07T09:06:09;6.70;99.90
4693;DHT22;11710;48.024;16.296;2022-12-07T09:08:39;6.80;99.90
4693;DHT22;11710;48.024;16.296;2022-12-07T09:11:09;6.80;99.90
4693;DHT22;11710;48.024;16.296;2022-12-07T09:13:36;6.90;99.90
4693;DHT22;11710;48.024;16.296;2022-12-07T09:16:03;7.00;99.90
4693;DHT22;11710;48.024;16.296;2022-12-07T09:18:31;6.90;99.90
4693;DHT22;11710;48.024;16.296;2022-12-07T09:20:58;6.90;99.90
4693;DHT22;11710;48.024;16.296;2022-12-07T09:23:25;7.00;99.90
4693;DHT22;11710;48.024;16.296;2022-12-07T09:25:52;6.90;99.90
4693;DHT22;11710;48.024;16.296;2022-12-07T09:28:21;6.90;99.90
4693;DHT22;11710;48.024;16.296;2022-12-07T09:30:49;6.90;99.90
4693;DHT22;11710;48.024;16.296;2022-12-07T09:33:16;6.90;99.90
4693;DHT22;11710;48.024;16.296;2022-12-07T09:35:46;6.90;99.90
4693;DHT22;11710;48.024;16.296;2022-12-07T09:38:13;7.00;99.90
4693;DHT22;11710;48.024;16.296;2022-12-07T09:40:41;7.00;99.90
4693;DHT22;11710;48.024;16.296;2022-12-07T09:43:13;7.00;99.90
4693;DHT22;11710;48.024;16.296;2022-12-07T09:45:44;7.00;99.90
4693;DHT22;11710;48.024;16.296;2022-12-07T09:48:17;7.10;99.90
4693;DHT22;11710;48.024;16.296;2022-12-07T09:50:46;7.30;99.90
4693;DHT22;11710;48.024;16.296;2022-12-07T09:53:17;7.60;99.90
4693;DHT22;11710;48.024;16.296;2022-12-07T09:55:46;7.90;99.90
4693;DHT22;11710;48.024;16.296;2022-12-07T09:58:20;8.30;99.90
4693;DHT22;11710;48.024;16.296;2022-12-07T10:00:50;8.90;99.90
4693;DHT22;11710;48.024;16.296;2022-12-07T10:03:20;9.30;99.40
4693;DHT22;11710;48.024;16.296;2022-12-07T10:05:50;9.70;99.00
4693;DHT22;11710;48.024;16.296;2022-12-07T10:08:18;10.10;97.30
4693;DHT22;11710;48.024;16.296;2022-12-07T10:10:47;10.30;97.20
4693;DHT22;11710;48.024;16.296;2022-12-07T10:13:19;10.70;96.80
4693;DHT22;11710;48.024;16.296;2022-12-07T10:15:50;11.90;96.30
4693;DHT22;11710;48.024;16.296;2022-12-07T10:18:21;13.60;95.00
4693;DHT22;11710;48.024;16.296;2022-12-07T10:21:02;15.30;92.50
4693;DHT22;11710;48.024;16.296;2022-12-07T10:23:29;16.00;89.90
4693;DHT22;11710;48.024;16.296;2022-12-07T10:25:56;16.80;87.20
4693;DHT22;11710;48.024;16.296;2022-12-07T10:28:33;17.30;83.50
4693;DHT22;11710;48.024;16.296;2022-12-07T10:31:16;17.50;80.70
4693;DHT22;11710;48.024;16.296;2022-12-07T10:33:50;17.20;79.70
4693;DHT22;11710;48.024;16.296;2022-12-07T10:36:21;17.50;77.40
4693;DHT22;11710;48.024;16.296;2022-12-07T10:38:50;17.90;77.50
4693;DHT22;11710;48.024;16.296;2022-12-07T10:41:17;18.10;75.20
4693;DHT22;11710;48.024;16.296;2022-12-07T10:43:54;18.00;74.50
4693;DHT22;11710;48.024;16.296;2022-12-07T10:46:50;17.50;74.20
4693;DHT22;11710;48.024;16.296;2022-12-07T10:49:48;17.00;74.60
4693;DHT22;11710;48.024;16.296;2022-12-07T10:52:32;16.20;73.50
4693;DHT22;11710;48.024;16.296;2022-12-07T10:55:15;15.10;74.40
4693;DHT22;11710;48.024;16.296;2022-12-07T10:58:00;14.60;75.00
4693;DHT22;11710;48.024;16.296;2022-12-07T11:00:39;14.30;76.80
4693;DHT22;11710;48.024;16.296;2022-12-07T11:03:32;13.90;76.20
4693;DHT22;11710;48.024;16.296;2022-12-07T11:06:12;13.40;76.80
4693;DHT22;11710;48.024;16.296;2022-12-07T11:08:49;13.10;77.70
4693;DHT22;11710;48.024;16.296;2022-12-07T11:11:23;12.70;78.20
4693;DHT22;11710;48.024;16.296;2022-12-07T11:14:00;12.30;78.70
4693;DHT22;11710;48.024;16.296;2022-12-07T11:16:39;11.90;79.50
4693;DHT22;11710;48.024;16.296;2022-12-07T11:19:28;11.50;80.40
4693;DHT22;11710;48.024;16.296;2022-12-07T11:22:03;11.10;81.20
4693;DHT22;11710;48.024;16.296;2022-12-07T11:24:39;10.90;82.00
4693;DHT22;11710;48.024;16.296;2022-12-07T11:27:16;10.70;82.20
4693;DHT22;11710;48.024;16.296;2022-12-07T11:32:47;10.50;83.50
4693;DHT22;11710;48.024;16.296;2022-12-07T11:35:24;10.50;83.50
4693;DHT22;11710;48.024;16.296;2022-12-07T11:38:00;10.40;83.90
4693;DHT22;11710;48.024;16.296;2022-12-07T11:40:31;10.30;84.30
4693;DHT22;11710;48.024;16.296;2022-12-07T11:43:05;10.20;83.80
4693;DHT22;11710;48.024;16.296;2022-12-07T11:45:34;10.20;84.60
4693;DHT22;11710;48.024;16.296;2022-12-07T11:48:10;10.10;84.40
4693;DHT22;11710;48.024;16.296;2022-12-07T11:50:43;9.80;85.10
4693;DHT22;11710;48.024;16.296;2022-12-07T11:53:18;9.50;86.20
4693;DHT22;11710;48.024;16.296;2022-12-07T11:55:50;9.20;86.80
4693;DHT22;11710;48.024;16.296;2022-12-07T11:58:45;9.10;87.70
4693;DHT22;11710;48.024;16.296;2022-12-07T12:01:25;8.90;88.20
4693;DHT22;11710;48.024;16.296;2022-12-07T12:03:58;8.90;88.60
4693;DHT22;11710;48.024;16.296;2022-12-07T12:06:28;8.80;89.10
4693;DHT22;11710;48.024;16.296;2022-12-07T12:09:03;8.80;89.80
4693;DHT22;11710;48.024;16.296;2022-12-07T12:11:43;8.90;90.00
4693;DHT22;11710;48.024;16.296;2022-12-07T12:14:41;9.00;88.90
4693;DHT22;11710;48.024;16.296;2022-12-07T12:20:24;9.10;89.70
4693;DHT22;11710;48.024;16.296;2022-12-07T12:23:00;9.10;90.10
4693;DHT22;11710;48.024;16.296;2022-12-07T12:25:30;9.30;89.80
4693;DHT22;11710;48.024;16.296;2022-12-07T12:27:59;9.60;90.20
4693;DHT22;11710;48.024;16.296;2022-12-07T12:30:34;9.80;89.10
4693;DHT22;11710;48.024;16.296;2022-12-07T12:33:04;9.90;89.00
4693;DHT22;11710;48.024;16.296;2022-12-07T12:35:34;10.00;88.00
4693;DHT22;11710;48.024;16.296;2022-12-07T12:38:28;9.90;87.90
4693;DHT22;11710;48.024;16.296;2022-12-07T12:40:56;10.00;86.90
4693;DHT22;11710;48.024;16.296;2022-12-07T12:43:56;10.10;87.20
4693;DHT22;11710;48.024;16.296;2022-12-07T12:46:48;10.30;87.30
4693;DHT22;11710;48.024;16.296;2022-12-07T12:52:52;10.00;86.50
4693;DHT22;11710;48.024;16.296;2022-12-07T12:55:48;9.70;87.50
4693;DHT22;11710;48.024;16.296;2022-12-07T12:58:38;9.50;88.40
4693;DHT22;11710;48.024;16.296;2022-12-07T13:01:40;9.40;88.90
4693;DHT22;11710;48.024;16.296;2022-12-07T13:04:25;9.10;89.00
4693;DHT22;11710;48.024;16.296;2022-12-07T13:06:54;8.90;89.00
4693;DHT22;11710;48.024;16.296;2022-12-07T13:09:23;8.70;89.50
4693;DHT22;11710;48.024;16.296;2022-12-07T13:12:00;8.90;89.70
4693;DHT22;11710;48.024;16.296;2022-12-07T13:14:54;9.00;89.70
4693;DHT22;11710;48.024;16.296;2022-12-07T13:20:57;9.40;89.40
4693;DHT22;11710;48.024;16.296;2022-12-07T13:23:34;9.50;89.40
4693;DHT22;11710;48.024;16.296;2022-12-07T13:26:14;9.70;89.60
4693;DHT22;11710;48.024;16.296;2022-12-07T13:28:44;9.80;88.40
4693;DHT22;11710;48.024;16.296;2022-12-07T13:31:33;9.90;88.30
4693;DHT22;11710;48.024;16.296;2022-12-07T13:34:01;9.90;88.50
4693;DHT22;11710;48.024;16.296;2022-12-07T13:36:31;9.70;88.30
4693;DHT22;11710;48.024;16.296;2022-12-07T13:39:16;9.70;88.90
4693;DHT22;11710;48.024;16.296;2022-12-07T13:41:48;9.40;88.50
4693;DHT22;11710;48.024;16.296;2022-12-07T13:44:18;9.40;88.80
4693;DHT22;11710;48.024;16.296;2022-12-07T13:46:55;9.10;88.60
4693;DHT22;11710;48.024;16.296;2022-12-07T13:49:26;8.90;89.50
4693;DHT22;11710;48.024;16.296;2022-12-07T13:52:06;8.80;89.30
4693;DHT22;11710;48.024;16.296;2022-12-07T13:54:44;8.70;89.90
4693;DHT22;11710;48.024;16.296;2022-12-07T13:57:12;8.70;90.00
4693;DHT22;11710;48.024;16.296;2022-12-07T13:59:40;8.60;90.20
4693;DHT22;11710;48.024;16.296;2022-12-07T14:02:19;8.50;90.80
4693;DHT22;11710;48.024;16.296;2022-12-07T14:04:48;8.50;90.60
4693;DHT22;11710;48.024;16.296;2022-12-07T14:07:25;8.40;90.50
4693;DHT22;11710;48.024;16.296;2022-12-07T14:09:57;8.40;90.80
4693;DHT22;11710;48.024;16.296;2022-12-07T14:12:25;8.40;90.80
4693;DHT22;11710;48.024;16.296;2022-12-07T14:14:55;8.50;91.00
4693;DHT22;11710;48.024;16.296;2022-12-07T14:17:24;8.50;90.90
4693;DHT22;11710;48.024;16.296;2022-12-07T14:19:52;8.60;90.80
4693;DHT22;11710;48.024;16.296;2022-12-07T14:22:29;8.60;90.90
4693;DHT22;11710;48.024;16.296;2022-12-07T14:27:51;8.60;90.50
4693;DHT22;11710;48.024;16.296;2022-12-07T14:30:25;8.60;90.70
4693;DHT22;11710;48.024;16.296;2022-12-07T14:32:54;8.50;90.50
4693;DHT22;11710;48.024;16.296;2022-12-07T14:35:21;8.50;90.70
4693;DHT22;11710;48.024;16.296;2022-12-07T14:37:49;8.50;90.70
4693;DHT22;11710;48.024;16.296;2022-12-07T14:40:19;8.40;90.80
4693;DHT22;11710;48.024;16.296;2022-12-07T14:42:50;8.30;90.60
4693;DHT22;11710;48.024;16.296;2022-12-07T14:45:22;8.00;90.50
4693;DHT22;11710;48.024;16.296;2022-12-07T14:47:49;7.90;90.70
4693;DHT22;11710;48.024;16.296;2022-12-07T14:50:18;7.70;91.10
4693;DHT22;11710;48.024;16.296;2022-12-07T14:52:48;7.60;91.30
4693;DHT22;11710;48.024;16.296;2022-12-07T14:55:22;7.50;91.60
4693;DHT22;11710;48.024;16.296;2022-12-07T14:57:50;7.30;91.70
4693;DHT22;11710;48.024;16.296;2022-12-07T15:00:19;7.20;91.90
4693;DHT22;11710;48.024;16.296;2022-12-07T15:02:48;7.10;91.90
4693;DHT22;11710;48.024;16.296;2022-12-07T15:05:16;7.00;92.10
4693;DHT22;11710;48.024;16.296;2022-12-07T15:07:44;7.00;92.20
4693;DHT22;11710;48.024;16.296;2022-12-07T15:10:15;6.90;92.60
4693;DHT22;11710;48.024;16.296;2022-12-07T15:12:43;6.80;92.50
4693;DHT22;11710;48.024;16.296;2022-12-07T15:15:12;6.70;92.70
4693;DHT22;11710;48.024;16.296;2022-12-07T15:17:39;6.60;92.80
4693;DHT22;11710;48.024;16.296;2022-12-07T15:20:11;6.60;92.90
4693;DHT22;11710;48.024;16.296;2022-12-07T15:22:39;6.40;93.10
4693;DHT22;11710;48.024;16.296;2022-12-07T15:25:07;6.30;93.30
4693;DHT22;11710;48.024;16.296;2022-12-07T15:27:34;6.20;93.40
4693;DHT22;11710;48.024;16.296;2022-12-07T15:30:01;6.10;93.70
4693;DHT22;11710;48.024;16.296;2022-12-07T15:32:28;6.00;93.80
4693;DHT22;11710;48.024;16.296;2022-12-07T15:34:55;5.80;94.10
4693;DHT22;11710;48.024;16.296;2022-12-07T15:37:24;5.70;94.20
4693;DHT22;11710;48.024;16.296;2022-12-07T15:39:51;5.60;94.40
4693;DHT22;11710;48.024;16.296;2022-12-07T15:42:18;5.50;94.70
4693;DHT22;11710;48.024;16.296;2022-12-07T15:44:45;5.40;94.80
4693;DHT22;11710;48.024;16.296;2022-12-07T15:47:29;5.40;95.00
4693;DHT22;11710;48.024;16.296;2022-12-07T15:49:56;5.30;95.20
4693;DHT22;11710;48.024;16.296;2022-12-07T15:52:25;5.20;95.40
4693;DHT22;11710;48.024;16.296;2022-12-07T15:54:52;5.20;95.50
4693;DHT22;11710;48.024;16.296;2022-12-07T15:57:19;5.10;95.60
4693;DHT22;11710;48.024;16.296;2022-12-07T15:59:47;5.10;95.80
4693;DHT22;11710;48.024;16.296;2022-12-07T16:02:14;5.10;95.90
4693;DHT22;11710;48.024;16.296;2022-12-07T16:04:41;5.10;95.90
4693;DHT22;11710;48.024;16.296;2022-12-07T16:07:08;5.10;96.10
4693;DHT22;11710;48.024;16.296;2022-12-07T16:09:38;5.00;96.20
4693;DHT22;11710;48.024;16.296;2022-12-07T16:12:06;4.90;96.20
4693;DHT22;11710;48.024;16.296;2022-12-07T16:14:34;4.90;96.40
4693;DHT22;11710;48.024;16.296;2022-12-07T16:17:01;4.90;96.40
4693;DHT22;11710;48.024;16.296;2022-12-07T16:19:30;4.80;96.50
4693;DHT22;11710;48.024;16.296;2022-12-07T16:21:57;4.80;96.60
4693;DHT22;11710;48.024;16.296;2022-12-07T16:24:25;4.70;96.70
4693;DHT22;11710;48.024;16.296;2022-12-07T16:26:54;4.70;96.80
4693;DHT22;11710;48.024;16.296;2022-12-07T16:29:22;4.70;96.80
4693;DHT22;11710;48.024;16.296;2022-12-07T16:31:51;4.70;96.80
4693;DHT22;11710;48.024;16.296;2022-12-07T16:34:18;4.70;96.90
4693;DHT22;11710;48.024;16.296;2022-12-07T16:36:46;4.70;96.90
4693;DHT22;11710;48.024;16.296;2022-12-07T16:39:13;4.70;97.00
4693;DHT22;11710;48.024;16.296;2022-12-07T16:41:40;4.60;97.10
4693;DHT22;11710;48.024;16.296;2022-12-07T16:44:11;4.70;97.10
4693;DHT22;11710;48.024;16.296;2022-12-07T16:46:39;4.70;97.10
4693;DHT22;11710;48.024;16.296;2022-12-07T16:49:06;4.60;97.10
4693;DHT22;11710;48.024;16.296;2022-12-07T16:51:33;4.60;97.10
4693;DHT22;11710;48.024;16.296;2022-12-07T16:54:03;4.70;97.20
4693;DHT22;11710;48.024;16.296;2022-12-07T16:56:30;4.70;97.20
4693;DHT22;11710;48.024;16.296;2022-12-07T16:58:58;4.70;97.20
4693;DHT22;11710;48.024;16.296;2022-12-07T17:01:26;4.60;97.30
4693;DHT22;11710;48.024;16.296;2022-12-07T17:03:55;4.60;97.30
4693;DHT22;11710;48.024;16.296;2022-12-07T17:06:24;4.60;97.50
4693;DHT22;11710;48.024;16.296;2022-12-07T17:08:52;4.50;97.70
4693;DHT22;11710;48.024;16.296;2022-12-07T17:11:21;4.40;97.80
4693;DHT22;11710;48.024;16.296;2022-12-07T17:13:49;4.30;98.00
4693;DHT22;11710;48.024;16.296;2022-12-07T17:16:35;4.30;98.10
4693;DHT22;11710;48.024;16.296;2022-12-07T17:19:04;4.20;98.20
4693;DHT22;11710;48.024;16.296;2022-12-07T17:21:31;4.20;98.30
4693;DHT22;11710;48.024;16.296;2022-12-07T17:23:59;4.20;98.40
4693;DHT22;11710;48.024;16.296;2022-12-07T17:26:28;4.20;98.50
4693;DHT22;11710;48.024;16.296;2022-12-07T17:28:55;4.20;98.60
4693;DHT22;11710;48.024;16.296;2022-12-07T17:31:23;4.20;98.60
4693;DHT22;11710;48.024;16.296;2022-12-07T17:33:52;4.20;99.00
4693;DHT22;11710;48.024;16.296;2022-12-07T17:36:21;4.20;98.70
4693;DHT22;11710;48.024;16.296;2022-12-07T17:38:49;4.20;98.80
4693;DHT22;11710;48.024;16.296;2022-12-07T17:41:19;4.30;98.80
4693;DHT22;11710;48.024;16.296;2022-12-07T17:44:00;4.30;98.80
4693;DHT22;11710;48.024;16.296;2022-12-07T17:46:28;4.30;98.80
4693;DHT22;11710;48.024;16.296;2022-12-07T17:48:58;4.30;98.80
4693;DHT22;11710;48.024;16.296;2022-12-07T17:51:26;4.30;98.80
4693;DHT22;11710;48.024;16.296;2022-12-07T17:54:11;4.40;98.80
4693;DHT22;11710;48.024;16.296;2022-12-07T17:56:38;4.40;98.80
4693;DHT22;11710;48.024;16.296;2022-12-07T17:59:06;4.50;98.70
4693;DHT22;11710;48.024;16.296;2022-12-07T18:01:34;4.50;98.60
4693;DHT22;11710;48.024;16.296;2022-12-07T18:04:04;4.50;98.60
4693;DHT22;11710;48.024;16.296;2022-12-07T18:06:32;4.60;98.60
4693;DHT22;11710;48.024;16.296;2022-12-07T18:08:59;4.60;98.60
4693;DHT22;11710;48.024;16.296;2022-12-07T18:11:27;4.70;98.60
4693;DHT22;11710;48.024;16.296;2022-12-07T18:13:54;4.70;98.50
4693;DHT22;11710;48.024;16.296;2022-12-07T18:16:24;4.70;98.50
4693;DHT22;11710;48.024;16.296;2022-12-07T18:18:52;4.70;98.50
4693;DHT22;11710;48.024;16.296;2022-12-07T18:21:22;4.70;98.40
4693;DHT22;11710;48.024;16.296;2022-12-07T18:23:52;4.70;98.40
4693;DHT22;11710;48.024;16.296;2022-12-07T18:26:21;4.70;98.30
4693;DHT22;11710;48.024;16.296;2022-12-07T18:28:49;4.70;98.30
4693;DHT22;11710;48.024;16.296;2022-12-07T18:31:17;4.70;98.30
4693;DHT22;11710;48.024;16.296;2022-12-07T18:33:45;4.70;98.30
4693;DHT22;11710;48.024;16.296;2022-12-07T18:36:14;4.70;98.30
4693;DHT22;11710;48.024;16.296;2022-12-07T18:38:43;4.80;98.30
4693;DHT22;11710;48.024;16.296;2022-12-07T18:41:12;4.80;98.30
4693;DHT22;11710;48.024;16.296;2022-12-07T18:43:41;4.70;98.30
4693;DHT22;11710;48.024;16.296;2022-12-07T18:46:10;4.70;98.30
4693;DHT22;11710;48.024;16.296;2022-12-07T18:48:37;4.70;98.30
4693;DHT22;11710;48.024;16.296;2022-12-07T18:51:06;4.70;98.40
4693;DHT22;11710;48.024;16.296;2022-12-07T18:53:34;4.60;98.40
4693;DHT22;11710;48.024;16.296;2022-12-07T18:56:05;4.60;98.40
4693;DHT22;11710;48.024;16.296;2022-12-07T18:58:32;4.60;98.50
4693;DHT22;11710;48.024;16.296;2022-12-07T19:01:00;4.50;98.50
4693;DHT22;11710;48.024;16.296;2022-12-07T19:03:29;4.40;98.60
4693;DHT22;11710;48.024;16.296;2022-12-07T19:05:58;4.40;98.70
4693;DHT22;11710;48.024;16.296;2022-12-07T19:08:25;4.30;98.70
4693;DHT22;11710;48.024;16.296;2022-12-07T19:10:52;4.30;98.70
4693;DHT22;11710;48.024;16.296;2022-12-07T19:13:21;4.30;98.80
4693;DHT22;11710;48.024;16.296;2022-12-07T19:15:48;4.30;98.80
4693;DHT22;11710;48.024;16.296;2022-12-07T19:18:15;4.20;98.90
4693;DHT22;11710;48.024;16.296;2022-12-07T19:20:42;4.10;99.00
4693;DHT22;11710;48.024;16.296;2022-12-07T19:23:09;4.10;99.00
4693;DHT22;11710;48.024;16.296;2022-12-07T19:25:38;4.00;99.10
4693;DHT22;11710;48.024;16.296;2022-12-07T19:28:05;3.90;99.20
4693;DHT22;11710;48.024;16.296;2022-12-07T19:30:34;3.90;99.30
4693;DHT22;11710;48.024;16.296;2022-12-07T19:33:03;3.90;99.40
4693;DHT22;11710;48.024;16.296;2022-12-07T19:35:30;3.80;99.50
4693;DHT22;11710;48.024;16.296;2022-12-07T19:37:57;3.70;99.60
4693;DHT22;11710;48.024;16.296;2022-12-07T19:40:24;3.60;99.80
4693;DHT22;11710;48.024;16.296;2022-12-07T19:42:51;3.60;99.90
4693;DHT22;11710;48.024;16.296;2022-12-07T19:45:18;3.50;99.90
4693;DHT22;11710;48.024;16.296;2022-12-07T19:47:47;3.50;99.90
4693;DHT22;11710;48.024;16.296;2022-12-07T19:50:14;3.50;99.90
4693;DHT22;11710;48.024;16.296;2022-12-07T19:52:41;3.50;99.90
4693;DHT22;11710;48.024;16.296;2022-12-07T19:55:08;3.50;99.90
4693;DHT22;11710;48.024;16.296;2022-12-07T19:57:35;3.50;99.90
4693;DHT22;11710;48.024;16.296;2022-12-07T20:00:04;3.50;99.90
4693;DHT22;11710;48.024;16.296;2022-12-07T20:02:31;3.50;99.90
4693;DHT22;11710;48.024;16.296;2022-12-07T20:05:00;3.50;99.90
4693;DHT22;11710;48.024;16.296;2022-12-07T20:07:27;3.40;99.90
4693;DHT22;11710;48.024;16.296;2022-12-07T20:09:54;3.50;99.90
4693;DHT22;11710;48.024;16.296;2022-12-07T20:12:21;3.40;99.90
4693;DHT22;11710;48.024;16.296;2022-12-07T20:15:07;3.40;99.90
4693;DHT22;11710;48.024;16.296;2022-12-07T20:17:34;3.30;99.90
4693;DHT22;11710;48.024;16.296;2022-12-07T20:20:03;3.30;99.90
4693;DHT22;11710;48.024;16.296;2022-12-07T20:22:30;3.30;99.90
4693;DHT22;11710;48.024;16.296;2022-12-07T20:24:57;3.30;99.90
4693;DHT22;11710;48.024;16.296;2022-12-07T20:27:25;3.40;99.90
4693;DHT22;11710;48.024;16.296;2022-12-07T20:29:52;3.30;99.90
4693;DHT22;11710;48.024;16.296;2022-12-07T20:32:19;3.40;99.90
4693;DHT22;11710;48.024;16.296;2022-12-07T20:34:46;3.30;99.90
4693;DHT22;11710;48.024;16.296;2022-12-07T20:37:15;3.40;99.90
4693;DHT22;11710;48.024;16.296;2022-12-07T20:39:42;3.40;99.90
4693;DHT22;11710;48.024;16.296;2022-12-07T20:42:10;3.40;99.90
4693;DHT22;11710;48.024;16.296;2022-12-07T20:44:54;3.40;99.90
4693;DHT22;11710;48.024;16.296;2022-12-07T20:47:21;3.40;99.90
4693;DHT22;11710;48.024;16.296;2022-12-07T20:49:50;3.40;99.90
4693;DHT22;11710;48.024;16.296;2022-12-07T20:52:19;3.50;99.90
4693;DHT22;11710;48.024;16.296;2022-12-07T20:54:46;3.50;99.90
